Time;durP1;ratioP1;P1;durP2;ratioP2;P2;SDS_P1;SDS_P2;PMS_P1;PMS_P2;Temp;Humidity;BMP_temperature;BMP_pressure;BME280_temperature;BME280_humidity;BME280_pressure;Samples;Min_cycle;Max_cycle;Signal;HPM_P1;HPM_P2
2021/08/04 00:00:56;;;;;;;9.27;6.47;;;;;;;;;;5089021;28;36797;-77
2021/08/04 00:03:22;;;;;;;10.15;6.50;;;;;;;;;;5070856;28;39461;-77
2021/08/04 00:05:49;;;;;;;8.70;5.70;;;;;;;;;;5089928;28;38381;-77
2021/08/04 00:08:15;;;;;;;8.00;6.20;;;;;;;;;;5071019;28;38123;-77
2021/08/04 00:10:41;;;;;;;9.55;6.00;;;;;;;;;;5090565;28;36823;-77
2021/08/04 00:13:08;;;;;;;10.60;6.68;;;;;;;;;;5068295;28;39609;-77
2021/08/04 00:15:34;;;;;;;8.88;6.38;;;;;;;;;;5050133;28;39178;-77
2021/08/04 00:18:00;;;;;;;9.00;6.53;;;;;;;;;;5051512;28;39570;-77
2021/08/04 00:20:27;;;;;;;9.20;7.15;;;;;;;;;;5066850;28;38640;-77
2021/08/04 00:22:53;;;;;;;7.05;5.93;;;;;;;;;;5051303;28;38919;-77
2021/08/04 00:25:19;;;;;;;6.70;5.50;;;;;;;;;;5060885;28;37128;-77
2021/08/04 00:27:46;;;;;;;13.95;7.22;;;;;;;;;;5089226;28;38335;-77
2021/08/04 00:30:12;;;;;;;6.78;5.55;;;;;;;;;;5088313;28;38096;-77
2021/08/04 00:32:38;;;;;;;7.07;5.70;;;;;;;;;;5089704;28;38991;-77
2021/08/04 00:35:05;;;;;;;8.15;5.28;;;;;;;;;;5087825;28;39708;-76
2021/08/04 00:37:32;;;;;;;6.53;5.55;;;;;;;;;;5089822;28;38250;-77
2021/08/04 00:39:58;;;;;;;7.82;6.30;;;;;;;;;;5082181;28;36432;-77
2021/08/04 00:42:24;;;;;;;8.20;6.10;;;;;;;;;;5086475;28;38569;-77
2021/08/04 00:44:51;;;;;;;6.82;6.03;;;;;;;;;;5075196;28;38762;-77
2021/08/04 00:47:17;;;;;;;6.57;5.50;;;;;;;;;;5048452;28;39329;-77
2021/08/04 00:49:44;;;;;;;8.82;5.43;;;;;;;;;;5069692;28;38540;-77
2021/08/04 00:52:10;;;;;;;7.15;4.90;;;;;;;;;;5088320;28;39004;-77
2021/08/04 00:54:37;;;;;;;6.50;4.88;;;;;;;;;;5088644;28;37940;-77
2021/08/04 00:57:03;;;;;;;7.85;5.30;;;;;;;;;;5078530;28;37827;-77
2021/08/04 00:59:30;;;;;;;6.00;5.40;;;;;;;;;;5078803;28;37508;-77
2021/08/04 01:02:05;;;;;;;8.10;5.15;;;;;;;;;;5068735;28;40783;-77
2021/08/04 01:04:37;;;;;;;9.13;5.35;;;;;;;;;;5069489;28;47215;-77
2021/08/04 01:07:10;;;;;;;5.70;5.10;;;;;;;;;;5088770;28;38094;-76
2021/08/04 01:09:50;;;;;;;5.78;4.90;;;;;;;;;;5089651;28;37059;-77
2021/08/04 01:12:20;;;;;;;5.50;4.63;;;;;;;;;;5088396;28;40105;-77
2021/08/04 01:14:47;;;;;;;5.75;4.65;;;;;;;;;;5055840;28;39225;-77
2021/08/04 01:17:15;;;;;;;7.63;4.93;;;;;;;;;;5083839;28;38928;-77
2021/08/04 01:19:55;;;;;;;5.57;4.78;;;;;;;;;;5089231;28;37966;-77
2021/08/04 01:22:33;;;;;;;5.07;4.50;;;;;;;;;;5068950;28;37482;-77
2021/08/04 01:24:59;;;;;;;8.73;4.85;;;;;;;;;;5070344;28;38947;-77
2021/08/04 01:27:26;;;;;;;6.78;5.40;;;;;;;;;;5069009;28;38944;-78
2021/08/04 01:29:54;;;;;;;8.73;5.47;;;;;;;;;;5088622;28;36738;-77
2021/08/04 01:32:21;;;;;;;5.70;5.10;;;;;;;;;;5068632;28;40266;-77
2021/08/04 01:34:49;;;;;;;6.85;5.50;;;;;;;;;;5087141;28;38821;-77
2021/08/04 01:37:17;;;;;;;8.35;5.85;;;;;;;;;;5086468;28;38297;-76
2021/08/04 01:39:44;;;;;;;6.22;5.57;;;;;;;;;;5065531;28;38421;-77
2021/08/04 01:42:11;;;;;;;8.63;6.18;;;;;;;;;;5075989;28;39446;-77
2021/08/04 01:44:37;;;;;;;6.82;5.55;;;;;;;;;;5077895;28;38457;-77
2021/08/04 01:47:04;;;;;;;10.50;6.60;;;;;;;;;;5087176;28;38296;-76
2021/08/04 01:49:31;;;;;;;10.25;6.43;;;;;;;;;;5073179;28;36321;-77
2021/08/04 01:51:58;;;;;;;7.97;6.60;;;;;;;;;;5085900;28;40437;-78
2021/08/04 01:54:25;;;;;;;8.95;6.13;;;;;;;;;;5087815;28;38964;-78
2021/08/04 01:56:52;;;;;;;7.63;5.68;;;;;;;;;;5080864;28;38035;-77
2021/08/04 01:59:22;;;;;;;6.85;6.07;;;;;;;;;;5075692;28;36822;-77
2021/08/04 02:01:48;;;;;;;6.50;5.57;;;;;;;;;;5087825;28;38682;-77
2021/08/04 02:04:14;;;;;;;7.90;5.82;;;;;;;;;;5087219;28;37987;-78
2021/08/04 02:06:51;;;;;;;6.30;5.70;;;;;;;;;;5067811;28;39703;-77
2021/08/04 02:09:20;;;;;;;7.07;6.38;;;;;;;;;;5086129;28;37908;-77
2021/08/04 02:11:56;;;;;;;9.15;6.10;;;;;;;;;;5087387;28;40563;-77
2021/08/04 02:14:27;;;;;;;8.73;6.45;;;;;;;;;;5075491;28;40033;-77
2021/08/04 02:17:06;;;;;;;7.88;6.53;;;;;;;;;;5068311;28;39240;-77
2021/08/04 02:19:39;;;;;;;6.72;6.03;;;;;;;;;;5066657;28;49014;-77
2021/08/04 02:22:25;;;;;;;7.75;6.53;;;;;;;;;;5067064;28;38533;-77
2021/08/04 02:24:55;;;;;;;8.30;6.78;;;;;;;;;;5065884;28;37934;-77
2021/08/04 02:27:21;;;;;;;8.77;6.10;;;;;;;;;;5067111;28;38867;-78
2021/08/04 02:29:49;;;;;;;7.03;6.13;;;;;;;;;;5088497;28;36586;-77
2021/08/04 02:32:15;;;;;;;8.80;6.88;;;;;;;;;;5067529;28;39728;-77
2021/08/04 02:34:42;;;;;;;9.95;6.63;;;;;;;;;;5068371;28;38555;-77
2021/08/04 02:37:08;;;;;;;8.02;6.68;;;;;;;;;;5085230;28;39159;-77
2021/08/04 02:39:35;;;;;;;8.82;6.25;;;;;;;;;;5083804;28;36992;-77
2021/08/04 02:42:02;;;;;;;10.52;7.82;;;;;;;;;;5071653;28;39799;-76
2021/08/04 02:44:28;;;;;;;11.02;6.82;;;;;;;;;;5072159;28;38510;-77
2021/08/04 02:46:55;;;;;;;8.70;5.93;;;;;;;;;;5062301;28;39307;-77
2021/08/04 02:49:22;;;;;;;7.68;6.18;;;;;;;;;;5060313;28;37156;-77
2021/08/04 02:51:48;;;;;;;9.63;7.35;;;;;;;;;;5082223;28;39381;-77
2021/08/04 02:54:17;;;;;;;8.27;6.93;;;;;;;;;;5066349;28;38198;-77
2021/08/04 02:56:44;;;;;;;9.57;7.03;;;;;;;;;;5081278;28;39619;-77
2021/08/04 02:59:10;;;;;;;9.25;6.90;;;;;;;;;;5080895;28;37898;-77
2021/08/04 03:01:36;;;;;;;7.65;6.40;;;;;;;;;;5065283;28;39421;-77
2021/08/04 03:04:03;;;;;;;7.18;6.00;;;;;;;;;;5065244;28;39081;-77
2021/08/04 03:06:29;;;;;;;10.32;7.10;;;;;;;;;;5063831;28;37467;-77
2021/08/04 03:08:56;;;;;;;8.70;7.50;;;;;;;;;;5066619;28;36723;-77
2021/08/04 03:11:22;;;;;;;8.82;7.15;;;;;;;;;;5065386;28;39131;-77
2021/08/04 03:13:48;;;;;;;8.10;7.22;;;;;;;;;;5067275;28;38356;-77
2021/08/04 03:16:15;;;;;;;9.73;8.23;;;;;;;;;;5079932;28;38417;-77
2021/08/04 03:18:41;;;;;;;13.55;8.20;;;;;;;;;;5081299;28;38034;-77
2021/08/04 03:21:07;;;;;;;11.30;8.95;;;;;;;;;;5080138;28;39331;-78
2021/08/04 03:23:34;;;;;;;11.60;8.02;;;;;;;;;;5080734;28;38948;-77
2021/08/04 03:26:00;;;;;;;10.15;7.88;;;;;;;;;;5066353;28;39258;-77
2021/08/04 03:28:27;;;;;;;10.13;9.13;;;;;;;;;;5066081;28;38040;-77
2021/08/04 03:30:53;;;;;;;13.07;8.45;;;;;;;;;;5065685;28;40044;-77
2021/08/04 03:33:19;;;;;;;9.13;7.95;;;;;;;;;;5080929;28;39126;-77
2021/08/04 03:35:46;;;;;;;12.05;9.35;;;;;;;;;;5080609;28;39637;-77
2021/08/04 03:38:12;;;;;;;10.77;9.25;;;;;;;;;;5065471;28;36659;-77
2021/08/04 03:40:38;;;;;;;13.00;9.60;;;;;;;;;;5057037;28;40549;-77
2021/08/04 03:43:05;;;;;;;11.32;9.45;;;;;;;;;;5083971;28;39960;-77
2021/08/04 03:45:31;;;;;;;12.27;9.48;;;;;;;;;;5068531;28;38232;-77
2021/08/04 03:47:57;;;;;;;16.77;10.57;;;;;;;;;;5068803;28;37383;-77
2021/08/04 03:50:24;;;;;;;10.75;9.32;;;;;;;;;;5085242;28;38489;-77
2021/08/04 03:52:50;;;;;;;11.40;10.20;;;;;;;;;;5087690;28;38154;-77
2021/08/04 03:55:17;;;;;;;12.35;9.95;;;;;;;;;;5086596;28;38031;-77
2021/08/04 03:57:43;;;;;;;12.55;10.93;;;;;;;;;;5080039;28;37230;-77
2021/08/04 04:00:10;;;;;;;13.45;11.15;;;;;;;;;;5086375;28;38430;-77
2021/08/04 04:02:37;;;;;;;17.13;12.20;;;;;;;;;;5068385;28;47232;-77
2021/08/04 04:05:03;;;;;;;11.23;10.02;;;;;;;;;;5067473;28;38992;-78
2021/08/04 04:07:30;;;;;;;12.18;10.63;;;;;;;;;;5084638;28;48536;-77
2021/08/04 04:09:56;;;;;;;15.68;11.23;;;;;;;;;;5084202;28;40706;-77
2021/08/04 04:12:22;;;;;;;13.25;10.18;;;;;;;;;;5085255;28;39353;-77
2021/08/04 04:14:49;;;;;;;12.70;10.25;;;;;;;;;;5071661;28;37856;-77
2021/08/04 04:17:15;;;;;;;12.60;10.30;;;;;;;;;;5064484;28;36965;-77
2021/08/04 04:19:41;;;;;;;13.68;9.98;;;;;;;;;;5064621;28;39073;-77
2021/08/04 04:22:08;;;;;;;13.00;10.95;;;;;;;;;;5047567;28;38777;-77
2021/08/04 04:24:34;;;;;;;15.18;11.65;;;;;;;;;;5088765;28;37839;-77
2021/08/04 04:27:00;;;;;;;15.20;12.32;;;;;;;;;;5086307;28;37732;-77
2021/08/04 04:29:27;;;;;;;15.25;13.02;;;;;;;;;;5088172;28;42120;-77
2021/08/04 04:31:53;;;;;;;17.38;12.15;;;;;;;;;;5087523;28;37261;-77
2021/08/04 04:34:19;;;;;;;15.40;13.15;;;;;;;;;;5086219;28;38498;-77
2021/08/04 04:36:46;;;;;;;13.60;11.95;;;;;;;;;;5083887;28;37180;-77
2021/08/04 04:39:12;;;;;;;17.17;13.38;;;;;;;;;;5069571;28;40775;-77
2021/08/04 04:41:38;;;;;;;13.02;11.73;;;;;;;;;;5078849;28;39348;-77
2021/08/04 04:44:05;;;;;;;17.40;11.55;;;;;;;;;;5072808;28;38209;-77
2021/08/04 04:46:31;;;;;;;16.83;13.30;;;;;;;;;;5086281;28;37762;-77
2021/08/04 04:48:58;;;;;;;15.18;13.32;;;;;;;;;;5077675;28;37468;-77
2021/08/04 04:51:24;;;;;;;17.25;14.48;;;;;;;;;;5067441;28;38230;-77
2021/08/04 04:53:50;;;;;;;14.98;13.10;;;;;;;;;;5066752;28;38758;-78
2021/08/04 04:56:17;;;;;;;16.13;13.20;;;;;;;;;;5068616;28;38761;-77
2021/08/04 04:58:43;;;;;;;16.23;12.80;;;;;;;;;;5091445;28;39305;-77
2021/08/04 05:01:10;;;;;;;16.65;13.07;;;;;;;;;;5086727;28;39198;-77
2021/08/04 05:03:36;;;;;;;17.73;15.52;;;;;;;;;;5086457;28;37688;-77
2021/08/04 05:06:03;;;;;;;15.98;13.20;;;;;;;;;;5087061;28;38098;-77
2021/08/04 05:08:29;;;;;;;12.60;11.30;;;;;;;;;;5087064;28;39231;-77
2021/08/04 05:10:55;;;;;;;18.13;15.65;;;;;;;;;;5088897;28;38662;-77
2021/08/04 05:13:22;;;;;;;16.13;13.88;;;;;;;;;;5089130;28;39467;-77
2021/08/04 05:15:48;;;;;;;16.98;13.95;;;;;;;;;;5065846;28;38775;-77
2021/08/04 05:18:14;;;;;;;16.58;12.52;;;;;;;;;;5068280;28;38934;-77
2021/08/04 05:20:41;;;;;;;15.20;12.77;;;;;;;;;;5065620;28;38500;-77
2021/08/04 05:23:07;;;;;;;14.85;13.32;;;;;;;;;;5067929;28;38239;-77
2021/08/04 05:25:33;;;;;;;13.43;11.98;;;;;;;;;;5067210;28;37890;-77
2021/08/04 05:28:00;;;;;;;15.35;12.68;;;;;;;;;;5068718;28;38649;-77
2021/08/04 05:30:26;;;;;;;16.13;13.02;;;;;;;;;;5067594;28;38465;-78
2021/08/04 05:32:52;;;;;;;17.08;13.73;;;;;;;;;;5089168;28;39360;-77
2021/08/04 05:35:19;;;;;;;17.15;15.10;;;;;;;;;;5084812;28;37822;-77
2021/08/04 05:37:45;;;;;;;15.18;13.15;;;;;;;;;;5086505;28;39676;-77
2021/08/04 05:40:12;;;;;;;14.90;13.27;;;;;;;;;;5082016;28;38676;-77
2021/08/04 05:42:38;;;;;;;15.80;13.95;;;;;;;;;;5076621;28;37771;-77
2021/08/04 05:45:05;;;;;;;17.05;12.85;;;;;;;;;;5079085;28;37878;-76
2021/08/04 05:47:31;;;;;;;16.33;13.82;;;;;;;;;;5087698;28;38675;-77
2021/08/04 05:49:57;;;;;;;16.42;14.25;;;;;;;;;;5068958;28;38694;-77
2021/08/04 05:52:24;;;;;;;17.48;14.38;;;;;;;;;;5064812;28;39850;-77
2021/08/04 05:54:51;;;;;;;18.42;13.68;;;;;;;;;;5066078;28;38124;-77
2021/08/04 05:57:17;;;;;;;15.35;12.90;;;;;;;;;;5074659;28;39992;-77
2021/08/04 05:59:44;;;;;;;13.02;11.63;;;;;;;;;;5086854;28;39284;-77
2021/08/04 06:02:10;;;;;;;14.02;11.95;;;;;;;;;;5087356;28;38138;-77
2021/08/04 06:04:36;;;;;;;17.08;12.48;;;;;;;;;;5086819;28;37367;-77
2021/08/04 06:07:03;;;;;;;15.52;13.02;;;;;;;;;;5086241;28;39505;-77
2021/08/04 06:09:30;;;;;;;12.77;11.45;;;;;;;;;;5087075;28;38984;-77
2021/08/04 06:11:57;;;;;;;12.95;10.80;;;;;;;;;;5087625;28;38433;-77
2021/08/04 06:14:24;;;;;;;12.63;10.70;;;;;;;;;;5079133;28;38431;-77
2021/08/04 06:16:50;;;;;;;13.88;10.98;;;;;;;;;;5077098;28;39404;-77
2021/08/04 06:19:16;;;;;;;13.43;11.43;;;;;;;;;;5063856;28;38263;-76
2021/08/04 06:21:43;;;;;;;14.43;10.75;;;;;;;;;;5072474;28;39084;-77
2021/08/04 06:24:09;;;;;;;12.00;10.73;;;;;;;;;;5087500;28;37307;-77
2021/08/04 06:26:35;;;;;;;12.38;10.20;;;;;;;;;;5085615;28;38864;-77
2021/08/04 06:29:02;;;;;;;11.02;9.43;;;;;;;;;;5086683;28;39064;-77
2021/08/04 06:31:28;;;;;;;9.23;8.27;;;;;;;;;;5086276;28;47900;-77
2021/08/04 06:33:54;;;;;;;12.95;9.65;;;;;;;;;;5087552;28;37209;-77
2021/08/04 06:36:21;;;;;;;9.85;8.15;;;;;;;;;;5086813;28;39044;-77
2021/08/04 06:38:47;;;;;;;11.05;8.65;;;;;;;;;;5068634;28;39068;-77
2021/08/04 06:41:13;;;;;;;13.75;9.45;;;;;;;;;;5059493;28;38803;-77
2021/08/04 06:43:40;;;;;;;11.00;8.30;;;;;;;;;;5085763;28;37640;-77
2021/08/04 06:46:13;;;;;;;9.30;7.18;;;;;;;;;;5065987;28;39048;-77
2021/08/04 06:48:39;;;;;;;11.55;8.48;;;;;;;;;;5070512;28;39362;-77
2021/08/04 06:51:06;;;;;;;11.02;8.57;;;;;;;;;;5085725;28;39548;-78
2021/08/04 06:53:32;;;;;;;11.05;6.60;;;;;;;;;;5085388;28;37206;-77
2021/08/04 06:55:59;;;;;;;10.02;8.00;;;;;;;;;;5085424;28;38633;-78
2021/08/04 06:58:25;;;;;;;10.10;7.75;;;;;;;;;;5071635;28;38459;-77
2021/08/04 07:00:52;;;;;;;9.10;7.28;;;;;;;;;;5063992;28;39708;-77
2021/08/04 07:03:18;;;;;;;8.77;7.18;;;;;;;;;;5065144;28;38702;-77
2021/08/04 07:05:46;;;;;;;7.88;7.07;;;;;;;;;;5071536;28;38555;-78
2021/08/04 07:08:17;;;;;;;10.10;7.00;;;;;;;;;;5069004;28;38986;-78
2021/08/04 07:10:43;;;;;;;8.63;6.80;;;;;;;;;;5069253;28;38664;-78
2021/08/04 07:13:09;;;;;;;8.18;6.10;;;;;;;;;;5087139;28;36381;-78
2021/08/04 07:15:36;;;;;;;7.55;5.97;;;;;;;;;;5069137;28;38733;-77
2021/08/04 07:18:06;;;;;;;6.57;5.47;;;;;;;;;;5066147;28;38726;-77
2021/08/04 07:20:33;;;;;;;10.00;5.68;;;;;;;;;;5066803;28;37877;-78
2021/08/04 07:22:59;;;;;;;7.95;6.22;;;;;;;;;;5065509;28;38940;-77
2021/08/04 07:25:26;;;;;;;6.57;4.90;;;;;;;;;;5064629;28;39338;-78
2021/08/04 07:27:52;;;;;;;8.43;5.70;;;;;;;;;;5068896;28;39552;-77
2021/08/04 07:30:19;;;;;;;7.28;5.90;;;;;;;;;;5077554;28;37909;-78
2021/08/04 07:32:45;;;;;;;8.63;5.47;;;;;;;;;;5087469;28;36973;-78
2021/08/04 07:35:11;;;;;;;6.82;5.63;;;;;;;;;;5066324;28;40775;-77
2021/08/04 07:37:38;;;;;;;10.48;6.50;;;;;;;;;;5068323;28;40339;-78
2021/08/04 07:40:05;;;;;;;7.70;6.00;;;;;;;;;;5085237;28;38463;-77
2021/08/04 07:42:32;;;;;;;7.63;5.90;;;;;;;;;;5046066;28;48235;-78
2021/08/04 07:44:58;;;;;;;6.85;5.38;;;;;;;;;;5038635;28;38707;-78
2021/08/04 07:47:24;;;;;;;7.57;5.35;;;;;;;;;;5052902;28;38794;-78
2021/08/04 07:49:51;;;;;;;5.55;5.05;;;;;;;;;;5046449;28;36835;-78
2021/08/04 07:52:17;;;;;;;8.02;5.45;;;;;;;;;;5040203;28;38123;-78
2021/08/04 07:54:44;;;;;;;10.70;5.57;;;;;;;;;;5026363;28;38627;-78
2021/08/04 07:57:10;;;;;;;7.80;4.93;;;;;;;;;;5058318;28;39625;-78
2021/08/04 07:59:37;;;;;;;6.57;5.18;;;;;;;;;;5050672;28;38100;-78
2021/08/04 08:02:04;;;;;;;7.45;5.30;;;;;;;;;;5049426;28;36972;-77
2021/08/04 08:04:33;;;;;;;5.82;5.00;;;;;;;;;;5048824;28;39761;-77
2021/08/04 08:07:00;;;;;;;5.45;4.93;;;;;;;;;;5049529;28;38536;-78
2021/08/04 08:09:27;;;;;;;11.38;5.78;;;;;;;;;;5049464;28;39098;-78
2021/08/04 08:11:55;;;;;;;10.85;6.00;;;;;;;;;;5050650;28;37738;-78
2021/08/04 08:14:21;;;;;;;9.80;5.30;;;;;;;;;;5045361;28;39932;-78
2021/08/04 08:16:48;;;;;;;6.72;4.75;;;;;;;;;;5044706;28;37921;-78
2021/08/04 08:19:14;;;;;;;5.97;4.95;;;;;;;;;;5031214;28;38140;-78
2021/08/04 08:21:41;;;;;;;8.82;4.70;;;;;;;;;;5045556;28;36580;-78
2021/08/04 08:24:07;;;;;;;7.95;4.57;;;;;;;;;;5067054;28;40420;-78
2021/08/04 08:26:35;;;;;;;8.38;5.15;;;;;;;;;;5066266;28;39913;-78
2021/08/04 08:29:01;;;;;;;7.82;5.20;;;;;;;;;;5053410;28;39750;-78
2021/08/04 08:31:28;;;;;;;7.43;5.78;;;;;;;;;;5050370;28;36841;-78
2021/08/04 08:33:54;;;;;;;9.77;7.10;;;;;;;;;;5053232;28;39742;-78
2021/08/04 08:36:21;;;;;;;8.65;6.57;;;;;;;;;;5049559;28;39139;-78
2021/08/04 08:38:47;;;;;;;7.95;6.20;;;;;;;;;;5050585;28;38527;-78
2021/08/04 08:41:16;;;;;;;12.32;8.32;;;;;;;;;;5050547;28;35565;-79
2021/08/04 08:43:42;;;;;;;8.85;7.80;;;;;;;;;;5088787;28;39210;-79
2021/08/04 08:46:09;;;;;;;8.88;7.72;;;;;;;;;;5074824;28;38851;-79
2021/08/04 08:48:35;;;;;;;8.20;6.50;;;;;;;;;;5075931;28;38046;-78
2021/08/04 08:51:02;;;;;;;11.57;9.27;;;;;;;;;;5092069;28;37275;-77
2021/08/04 08:53:28;;;;;;;10.60;9.40;;;;;;;;;;5096514;28;39689;-79
2021/08/04 08:55:54;;;;;;;11.45;10.25;;;;;;;;;;5097728;28;40157;-79
2021/08/04 08:58:21;;;;;;;14.82;9.73;;;;;;;;;;5074250;28;39108;-78
2021/08/04 09:00:47;;;;;;;11.02;9.70;;;;;;;;;;5091338;28;37917;-79
2021/08/04 09:03:14;;;;;;;13.07;9.73;;;;;;;;;;5074595;28;40300;-78
2021/08/04 09:05:48;;;;;;;13.10;8.68;;;;;;;;;;5073773;28;37476;-79
2021/08/04 09:08:26;;;;;;;11.07;8.98;;;;;;;;;;5074585;28;38850;-78
2021/08/04 09:10:52;;;;;;;9.82;7.95;;;;;;;;;;5078940;28;35688;-79
2021/08/04 09:13:29;;;;;;;10.63;8.63;;;;;;;;;;5078419;28;37362;-79
2021/08/04 09:15:58;;;;;;;10.20;8.63;;;;;;;;;;5077062;28;39121;-79
2021/08/04 09:18:24;;;;;;;10.73;9.40;;;;;;;;;;5076749;28;38234;-79
2021/08/04 09:20:53;;;;;;;10.05;8.30;;;;;;;;;;5072619;28;37698;-79
2021/08/04 09:23:29;;;;;;;10.63;9.52;;;;;;;;;;5074374;28;39892;-79
2021/08/04 09:26:14;;;;;;;14.15;10.10;;;;;;;;;;5072478;28;39536;-76
2021/08/04 09:28:51;;;;;;;13.60;11.57;;;;;;;;;;5079718;28;48723;-77
2021/08/04 09:31:18;;;;;;;14.82;10.60;;;;;;;;;;5091307;28;36551;-77
2021/08/04 09:33:45;;;;;;;12.95;10.95;;;;;;;;;;5096054;28;40241;-77
2021/08/04 09:36:11;;;;;;;13.18;10.57;;;;;;;;;;5073125;28;39938;-77
2021/08/04 09:38:38;;;;;;;13.60;11.05;;;;;;;;;;5101143;28;38541;-80
2021/08/04 09:41:15;;;;;;;10.57;7.68;;;;;;;;;;5092484;28;37126;-79
2021/08/04 09:43:45;;;;;;;11.65;8.60;;;;;;;;;;5097892;28;39068;-78
2021/08/04 09:46:21;;;;;;;9.75;7.90;;;;;;;;;;5089189;28;39216;-79
2021/08/04 09:48:47;;;;;;;10.18;8.98;;;;;;;;;;5072605;28;37411;-77
2021/08/04 09:51:16;;;;;;;9.25;7.47;;;;;;;;;;5070313;28;36259;-77
2021/08/04 09:53:46;;;;;;;11.48;8.07;;;;;;;;;;5073728;28;39724;-77
2021/08/04 09:56:14;;;;;;;10.35;9.25;;;;;;;;;;5076769;28;38004;-78
2021/08/04 09:58:42;;;;;;;9.55;8.55;;;;;;;;;;5078340;28;39723;-77
2021/08/04 10:01:11;;;;;;;9.63;8.40;;;;;;;;;;5094398;28;37193;-77
2021/08/04 10:03:37;;;;;;;10.82;7.68;;;;;;;;;;5075801;28;39193;-77
2021/08/04 10:06:04;;;;;;;7.45;6.53;;;;;;;;;;5071337;28;39036;-76
2021/08/04 10:08:30;;;;;;;8.45;6.93;;;;;;;;;;5083259;28;40283;-77
2021/08/04 10:10:58;;;;;;;8.18;6.88;;;;;;;;;;5070331;28;37950;-78
2021/08/04 10:13:28;;;;;;;8.57;7.25;;;;;;;;;;5081114;28;38702;-78
2021/08/04 10:15:58;;;;;;;9.15;8.32;;;;;;;;;;5077103;28;38725;-78
2021/08/04 10:18:25;;;;;;;6.65;5.75;;;;;;;;;;5073445;28;39494;-77
2021/08/04 10:20:54;;;;;;;7.80;6.00;;;;;;;;;;5069619;28;37515;-77
2021/08/04 10:23:20;;;;;;;7.30;6.30;;;;;;;;;;5076074;28;39497;-78
2021/08/04 10:25:47;;;;;;;7.88;6.32;;;;;;;;;;5078810;28;38814;-77
2021/08/04 10:28:14;;;;;;;9.35;7.20;;;;;;;;;;5079848;28;38320;-78
2021/08/04 10:30:42;;;;;;;8.68;6.68;;;;;;;;;;5092861;28;36855;-78
2021/08/04 10:33:08;;;;;;;5.90;5.20;;;;;;;;;;5074655;28;37727;-77
2021/08/04 10:35:36;;;;;;;4.93;4.10;;;;;;;;;;5074403;28;37711;-78
2021/08/04 10:38:04;;;;;;;5.40;4.60;;;;;;;;;;5092057;28;38064;-77
2021/08/04 10:40:30;;;;;;;5.70;5.03;;;;;;;;;;5090388;28;37184;-78
2021/08/04 10:42:57;;;;;;;6.20;4.93;;;;;;;;;;5077820;28;39341;-77
2021/08/04 10:45:23;;;;;;;5.97;5.10;;;;;;;;;;5083808;28;38725;-78
2021/08/04 10:47:54;;;;;;;6.25;5.13;;;;;;;;;;5094849;28;38794;-78
2021/08/04 10:50:21;;;;;;;6.18;5.07;;;;;;;;;;5078038;28;37300;-79
2021/08/04 10:53:02;;;;;;;5.82;5.15;;;;;;;;;;5076318;28;39002;-79
2021/08/04 10:55:29;;;;;;;6.63;5.78;;;;;;;;;;5095699;28;48558;-79
2021/08/04 10:58:05;;;;;;;5.85;5.25;;;;;;;;;;5090014;28;38142;-78
2021/08/04 11:00:32;;;;;;;6.60;5.75;;;;;;;;;;5073175;28;48096;-78
2021/08/04 11:02:59;;;;;;;7.70;5.15;;;;;;;;;;5074809;28;38168;-78
2021/08/04 11:05:25;;;;;;;5.35;4.80;;;;;;;;;;5073159;28;37073;-78
2021/08/04 11:08:30;;;;;;;5.93;4.50;;;;;;;;;;5072227;28;38320;-78
2021/08/04 11:10:57;;;;;;;5.88;5.25;;;;;;;;;;5039327;28;48849;-79
2021/08/04 11:13:44;;;;;;;5.47;4.38;;;;;;;;;;5054066;28;40037;-78
2021/08/04 11:16:29;;;;;;;7.57;6.85;;;;;;;;;;5068698;28;37207;-78
2021/08/04 11:19:03;;;;;;;8.45;6.28;;;;;;;;;;5058569;28;37196;-79
2021/08/04 11:21:29;;;;;;;4.97;4.57;;;;;;;;;;5055869;28;46892;-78
2021/08/04 11:23:56;;;;;;;5.85;5.30;;;;;;;;;;5070253;28;39406;-77
2021/08/04 11:26:27;;;;;;;7.63;5.45;;;;;;;;;;5090761;28;39173;-78
2021/08/04 11:28:53;;;;;;;7.47;5.30;;;;;;;;;;5091663;28;38322;-79
2021/08/04 11:31:20;;;;;;;5.82;4.65;;;;;;;;;;5094191;28;38018;-79
2021/08/04 11:33:46;;;;;;;7.53;5.63;;;;;;;;;;5106340;28;40588;-79
2021/08/04 11:36:15;;;;;;;5.65;4.53;;;;;;;;;;5097705;28;39949;-79
2021/08/04 11:38:43;;;;;;;6.60;5.40;;;;;;;;;;5079361;28;38576;-79
2021/08/04 11:41:30;;;;;;;4.85;3.88;;;;;;;;;;5091608;28;36979;-78
2021/08/04 11:43:59;;;;;;;5.05;4.47;;;;;;;;;;5073410;28;40273;-78
2021/08/04 11:46:36;;;;;;;5.18;4.68;;;;;;;;;;5075314;28;37466;-78
2021/08/04 11:49:04;;;;;;;5.30;4.75;;;;;;;;;;5089436;28;37787;-78
2021/08/04 11:51:35;;;;;;;6.32;4.10;;;;;;;;;;5093965;28;38669;-78
2021/08/04 11:54:02;;;;;;;5.20;4.70;;;;;;;;;;5094537;28;39235;-78
2021/08/04 11:56:28;;;;;;;6.95;4.95;;;;;;;;;;5095500;28;48827;-78
2021/08/04 11:59:00;;;;;;;6.50;4.97;;;;;;;;;;5078037;28;38579;-78
2021/08/04 12:01:26;;;;;;;3.70;3.40;;;;;;;;;;5073691;28;37105;-78
2021/08/04 12:04:12;;;;;;;5.75;3.90;;;;;;;;;;5093172;28;39954;-78
2021/08/04 12:06:39;;;;;;;7.03;4.88;;;;;;;;;;5074968;28;47504;-78
2021/08/04 12:09:26;;;;;;;6.90;5.15;;;;;;;;;;5098566;28;38140;-78
2021/08/04 12:11:54;;;;;;;6.53;4.70;;;;;;;;;;5101146;28;37205;-79
2021/08/04 12:14:21;;;;;;;6.85;5.85;;;;;;;;;;5102992;28;38773;-79
2021/08/04 12:16:49;;;;;;;9.55;5.07;;;;;;;;;;5080566;28;38883;-79
2021/08/04 12:19:36;;;;;;;7.00;5.68;;;;;;;;;;5094800;28;38021;-78
2021/08/04 12:22:03;;;;;;;6.43;5.03;;;;;;;;;;5090376;28;38068;-78
2021/08/04 12:24:29;;;;;;;5.53;4.80;;;;;;;;;;5088227;28;39688;-78
2021/08/04 12:26:56;;;;;;;8.73;6.10;;;;;;;;;;5071004;28;38209;-78
2021/08/04 12:29:24;;;;;;;5.95;4.70;;;;;;;;;;5069949;28;39440;-78
2021/08/04 12:32:10;;;;;;;7.25;6.15;;;;;;;;;;5070597;28;36953;-78
2021/08/04 12:34:47;;;;;;;8.07;5.93;;;;;;;;;;5079214;28;49019;-78
2021/08/04 12:37:14;;;;;;;6.97;5.32;;;;;;;;;;5087557;28;39607;-78
2021/08/04 12:39:42;;;;;;;7.18;5.28;;;;;;;;;;5086755;28;39377;-78
2021/08/04 12:42:08;;;;;;;5.15;4.38;;;;;;;;;;5079334;28;37251;-78
2021/08/04 12:44:35;;;;;;;6.20;4.82;;;;;;;;;;5049251;28;38557;-78
2021/08/04 12:47:12;;;;;;;5.63;4.63;;;;;;;;;;5065421;28;39783;-75
2021/08/04 12:49:38;;;;;;;5.05;4.45;;;;;;;;;;5066040;28;38718;-78
2021/08/04 12:52:05;;;;;;;5.50;4.00;;;;;;;;;;5048974;28;36924;-78
2021/08/04 12:54:33;;;;;;;8.10;5.75;;;;;;;;;;5037431;28;39381;-78
2021/08/04 12:57:00;;;;;;;8.68;6.95;;;;;;;;;;5046481;28;38297;-78
2021/08/04 12:59:43;;;;;;;9.02;8.13;;;;;;;;;;5048138;28;39440;-78
2021/08/04 13:02:10;;;;;;;12.38;11.13;;;;;;;;;;5055261;28;38048;-78
2021/08/04 13:04:37;;;;;;;14.68;13.18;;;;;;;;;;5071974;28;39888;-78
2021/08/04 13:07:04;;;;;;;14.90;11.95;;;;;;;;;;5052768;28;38903;-78
2021/08/04 13:09:30;;;;;;;15.50;11.45;;;;;;;;;;5051622;28;39402;-78
2021/08/04 13:12:12;;;;;;;12.73;11.50;;;;;;;;;;5050968;28;37258;-78
2021/08/04 13:14:57;;;;;;;12.10;10.88;;;;;;;;;;5049464;28;49103;-78
2021/08/04 13:17:24;;;;;;;11.32;10.23;;;;;;;;;;5065733;28;39159;-78
2021/08/04 13:20:01;;;;;;;10.13;9.13;;;;;;;;;;5066702;28;38049;-78
2021/08/04 13:22:28;;;;;;;10.23;9.10;;;;;;;;;;5064712;28;37936;-78
2021/08/04 13:25:05;;;;;;;11.18;9.98;;;;;;;;;;5049871;28;39728;-78
2021/08/04 13:27:34;;;;;;;9.27;8.38;;;;;;;;;;5048374;28;48964;-78
2021/08/04 13:30:19;;;;;;;9.15;8.25;;;;;;;;;;5049020;28;38986;-78
2021/08/04 13:32:46;;;;;;;8.20;7.22;;;;;;;;;;5064637;28;47384;-78
2021/08/04 13:35:12;;;;;;;14.00;10.45;;;;;;;;;;5035690;28;40129;-78
2021/08/04 13:37:39;;;;;;;8.90;8.07;;;;;;;;;;5047456;28;38622;-78
2021/08/04 13:40:06;;;;;;;11.80;9.63;;;;;;;;;;5031326;28;39331;-77
2021/08/04 13:42:36;;;;;;;9.55;7.30;;;;;;;;;;5074786;28;37248;-78
2021/08/04 13:45:04;;;;;;;10.43;8.57;;;;;;;;;;5072128;28;38990;-78
2021/08/04 13:47:30;;;;;;;6.93;6.05;;;;;;;;;;5071247;28;49611;-78
2021/08/04 13:50:01;;;;;;;8.82;6.38;;;;;;;;;;5069952;28;38007;-78
2021/08/04 13:52:30;;;;;;;6.43;5.82;;;;;;;;;;5072452;28;37155;-78
2021/08/04 13:54:57;;;;;;;9.90;8.48;;;;;;;;;;5084272;28;39642;-78
2021/08/04 13:57:24;;;;;;;10.82;8.27;;;;;;;;;;5049202;28;39865;-78
2021/08/04 13:59:50;;;;;;;9.50;8.60;;;;;;;;;;5080678;28;39654;-78
2021/08/04 14:02:16;;;;;;;8.80;7.90;;;;;;;;;;5070974;28;37686;-78
2021/08/04 14:04:43;;;;;;;9.40;8.38;;;;;;;;;;5086818;28;39336;-79
2021/08/04 14:07:09;;;;;;;8.90;8.00;;;;;;;;;;5071702;28;39705;-78
2021/08/04 14:09:35;;;;;;;12.80;9.32;;;;;;;;;;5072494;28;39581;-78
2021/08/04 14:12:02;;;;;;;10.07;8.65;;;;;;;;;;5071239;28;37669;-78
2021/08/04 14:14:29;;;;;;;6.38;5.38;;;;;;;;;;5071201;28;39757;-78
2021/08/04 14:16:56;;;;;;;6.72;5.97;;;;;;;;;;5051206;28;39290;-78
2021/08/04 14:19:23;;;;;;;9.10;6.78;;;;;;;;;;5071072;28;38593;-78
2021/08/04 14:21:49;;;;;;;9.70;7.43;;;;;;;;;;5074722;28;37842;-78
2021/08/04 14:24:16;;;;;;;10.00;6.68;;;;;;;;;;5085161;28;37415;-79
2021/08/04 14:26:43;;;;;;;10.23;7.40;;;;;;;;;;5052193;28;38145;-78
2021/08/04 14:29:09;;;;;;;6.57;5.35;;;;;;;;;;5068836;28;38823;-78
2021/08/04 14:31:36;;;;;;;6.65;5.28;;;;;;;;;;5082132;28;37268;-78
2021/08/04 14:34:02;;;;;;;5.53;5.10;;;;;;;;;;5073312;28;40159;-77
2021/08/04 14:36:29;;;;;;;8.07;6.80;;;;;;;;;;5072704;28;38315;-78
2021/08/04 14:38:56;;;;;;;6.95;6.25;;;;;;;;;;5088844;28;37883;-79
2021/08/04 14:41:22;;;;;;;7.28;6.57;;;;;;;;;;5066862;28;37559;-77